sensor_id;sensor_type;location;lat;lon;timestamp;pressure;altitude;pressure_sealevel;temperature;humidity
46782;BME280;32541;46.298;11.506;2023-11-21T00:01:25;88797.25;;;3.06;98.43
46782;BME280;32541;46.298;11.506;2023-11-21T00:03:53;88782.44;;;2.99;98.41
46782;BME280;32541;46.298;11.506;2023-11-21T00:06:20;88781.91;;;2.93;98.20
46782;BME280;32541;46.298;11.506;2023-11-21T00:08:45;88776.50;;;2.93;98.11
46782;BME280;32541;46.298;11.506;2023-11-21T00:11:11;88770.34;;;2.85;98.58
46782;BME280;32541;46.298;11.506;2023-11-21T00:13:36;88766.75;;;2.83;99.67
46782;BME280;32541;46.298;11.506;2023-11-21T00:16:03;88767.47;;;2.43;100.00
46782;BME280;32541;46.298;11.506;2023-11-21T00:18:29;88771.28;;;2.33;100.00
46782;BME280;32541;46.298;11.506;2023-11-21T00:20:54;88776.38;;;2.29;100.00
46782;BME280;32541;46.298;11.506;2023-11-21T00:23:20;88783.59;;;2.26;100.00
46782;BME280;32541;46.298;11.506;2023-11-21T00:25:45;88784.31;;;2.34;100.00
46782;BME280;32541;46.298;11.506;2023-11-21T00:28:10;88781.41;;;2.32;100.00
46782;BME280;32541;46.298;11.506;2023-11-21T00:30:36;88793.00;;;2.33;100.00
46782;BME280;32541;46.298;11.506;2023-11-21T00:33:01;88792.06;;;2.38;100.00
46782;BME280;32541;46.298;11.506;2023-11-21T00:35:27;88791.69;;;2.41;100.00
46782;BME280;32541;46.298;11.506;2023-11-21T00:37:52;88793.69;;;2.48;100.00
46782;BME280;32541;46.298;11.506;2023-11-21T00:40:17;88798.38;;;2.48;100.00
46782;BME280;32541;46.298;11.506;2023-11-21T00:42:46;88799.47;;;2.52;100.00
46782;BME280;32541;46.298;11.506;2023-11-21T00:45:12;88801.47;;;2.44;100.00
46782;BME280;32541;46.298;11.506;2023-11-21T00:47:37;88802.03;;;2.43;100.00
46782;BME280;32541;46.298;11.506;2023-11-21T00:50:04;88811.41;;;2.42;100.00
46782;BME280;32541;46.298;11.506;2023-11-21T00:52:31;88802.59;;;2.34;100.00
46782;BME280;32541;46.298;11.506;2023-11-21T00:54:56;88802.53;;;2.49;100.00
46782;BME280;32541;46.298;11.506;2023-11-21T00:57:24;88803.13;;;2.40;100.00
46782;BME280;32541;46.298;11.506;2023-11-21T00:59:49;88798.94;;;2.39;100.00
46782;BME280;32541;46.298;11.506;2023-11-21T01:02:15;88801.66;;;2.46;100.00
46782;BME280;32541;46.298;11.506;2023-11-21T01:04:41;88798.22;;;2.46;100.00
46782;BME280;32541;46.298;11.506;2023-11-21T01:07:06;88789.88;;;2.51;100.00
46782;BME280;32541;46.298;11.506;2023-11-21T01:09:31;88798.84;;;2.69;98.80
46782;BME280;32541;46.298;11.506;2023-11-21T01:11:57;88784.44;;;2.51;99.64
46782;BME280;32541;46.298;11.506;2023-11-21T01:14:24;88791.69;;;2.41;100.00
46782;BME280;32541;46.298;11.506;2023-11-21T01:16:52;88789.91;;;2.36;100.00
46782;BME280;32541;46.298;11.506;2023-11-21T01:19:18;88796.81;;;2.30;100.00
46782;BME280;32541;46.298;11.506;2023-11-21T01:21:43;88797.69;;;2.32;100.00
46782;BME280;32541;46.298;11.506;2023-11-21T01:24:09;88791.75;;;2.26;100.00
46782;BME280;32541;46.298;11.506;2023-11-21T01:26:34;88781.09;;;2.20;100.00
46782;BME280;32541;46.298;11.506;2023-11-21T01:28:59;88778.03;;;2.16;100.00
46782;BME280;32541;46.298;11.506;2023-11-21T01:31:25;88774.41;;;2.14;100.00
46782;BME280;32541;46.298;11.506;2023-11-21T01:33:54;88782.19;;;2.17;100.00
46782;BME280;32541;46.298;11.506;2023-11-21T01:36:20;88781.44;;;2.24;100.00
46782;BME280;32541;46.298;11.506;2023-11-21T01:38:46;88778.56;;;2.15;100.00
46782;BME280;32541;46.298;11.506;2023-11-21T01:41:13;88776.03;;;2.17;100.00
46782;BME280;32541;46.298;11.506;2023-11-21T01:43:39;88771.34;;;2.17;99.74
46782;BME280;32541;46.298;11.506;2023-11-21T01:46:05;88771.00;;;2.13;99.40
46782;BME280;32541;46.298;11.506;2023-11-21T01:48:31;88771.16;;;2.15;99.23
46782;BME280;32541;46.298;11.506;2023-11-21T01:50:58;88765.56;;;2.13;99.06
46782;BME280;32541;46.298;11.506;2023-11-21T01:53:25;88764.84;;;2.05;99.32
46782;BME280;32541;46.298;11.506;2023-11-21T01:55:51;88775.50;;;2.11;98.54
46782;BME280;32541;46.298;11.506;2023-11-21T01:58:19;88779.34;;;2.00;98.58
46782;BME280;32541;46.298;11.506;2023-11-21T02:00:45;88781.13;;;2.05;98.54
46782;BME280;32541;46.298;11.506;2023-11-21T02:03:10;88783.50;;;2.01;98.44
46782;BME280;32541;46.298;11.506;2023-11-21T02:05:36;88784.22;;;2.02;98.09
46782;BME280;32541;46.298;11.506;2023-11-21T02:08:02;88775.00;;;2.05;97.39
46782;BME280;32541;46.298;11.506;2023-11-21T02:10:28;88777.72;;;1.97;97.85
46782;BME280;32541;46.298;11.506;2023-11-21T02:12:54;88772.47;;;1.92;97.62
46782;BME280;32541;46.298;11.506;2023-11-21T02:15:21;88778.28;;;1.96;97.34
46782;BME280;32541;46.298;11.506;2023-11-21T02:17:50;88780.06;;;1.93;97.08
46782;BME280;32541;46.298;11.506;2023-11-21T02:20:17;88785.66;;;1.95;97.03
46782;BME280;32541;46.298;11.506;2023-11-21T02:22:50;88795.78;;;1.87;96.88
46782;BME280;32541;46.298;11.506;2023-11-21T02:25:23;88802.47;;;1.79;97.64
46782;BME280;32541;46.298;11.506;2023-11-21T02:27:49;88789.09;;;1.88;97.00
46782;BME280;32541;46.298;11.506;2023-11-21T02:30:15;88776.81;;;1.95;96.24
46782;BME280;32541;46.298;11.506;2023-11-21T02:32:41;88777.91;;;1.92;95.80
46782;BME280;32541;46.298;11.506;2023-11-21T02:35:08;88777.56;;;1.80;95.96
46782;BME280;32541;46.298;11.506;2023-11-21T02:37:34;88765.25;;;1.79;96.17
46782;BME280;32541;46.298;11.506;2023-11-21T02:40:00;88765.25;;;1.79;95.62
46782;BME280;32541;46.298;11.506;2023-11-21T02:42:28;88766.72;;;1.65;96.29
46782;BME280;32541;46.298;11.506;2023-11-21T02:44:53;88757.34;;;1.58;96.25
46782;BME280;32541;46.298;11.506;2023-11-21T02:47:18;88754.09;;;1.60;96.61
46782;BME280;32541;46.298;11.506;2023-11-21T02:49:44;88752.47;;;1.64;95.72
46782;BME280;32541;46.298;11.506;2023-11-21T02:52:09;88754.09;;;1.60;95.94
46782;BME280;32541;46.298;11.506;2023-11-21T02:54:34;88752.66;;;1.51;96.69
46782;BME280;32541;46.298;11.506;2023-11-21T02:57:02;88754.63;;;1.51;96.77
46782;BME280;32541;46.298;11.506;2023-11-21T02:59:27;88746.88;;;1.62;96.29
46782;BME280;32541;46.298;11.506;2023-11-21T03:01:53;88741.47;;;1.47;96.54
46782;BME280;32541;46.298;11.506;2023-11-21T03:04:18;88743.59;;;1.49;96.67
46782;BME280;32541;46.298;11.506;2023-11-21T03:06:44;88742.91;;;1.41;96.96
46782;BME280;32541;46.298;11.506;2023-11-21T03:09:10;88748.69;;;1.30;97.31
46782;BME280;32541;46.298;11.506;2023-11-21T03:11:37;88750.84;;;1.31;97.52
46782;BME280;32541;46.298;11.506;2023-11-21T03:14:03;88747.59;;;1.33;97.19
46782;BME280;32541;46.298;11.506;2023-11-21T03:16:28;88734.59;;;1.24;98.50
46782;BME280;32541;46.298;11.506;2023-11-21T03:18:54;88729.16;;;1.31;98.49
46782;BME280;32541;46.298;11.506;2023-11-21T03:21:19;88734.22;;;1.20;98.46
46782;BME280;32541;46.298;11.506;2023-11-21T03:23:45;88728.09;;;1.11;98.08
46782;BME280;32541;46.298;11.506;2023-11-21T03:26:13;88728.09;;;1.11;98.01
46782;BME280;32541;46.298;11.506;2023-11-21T03:28:39;88722.66;;;0.96;98.18
46782;BME280;32541;46.298;11.506;2023-11-21T03:31:05;88727.56;;;0.98;98.37
46782;BME280;32541;46.298;11.506;2023-11-21T03:33:32;88724.66;;;0.88;98.99
46782;BME280;32541;46.298;11.506;2023-11-21T03:35:57;88720.13;;;0.91;98.92
46782;BME280;32541;46.298;11.506;2023-11-21T03:38:23;88727.34;;;0.88;99.75
46782;BME280;32541;46.298;11.506;2023-11-21T03:40:48;88724.81;;;0.90;99.59
46782;BME280;32541;46.298;11.506;2023-11-21T03:43:14;88730.78;;;0.89;99.26
46782;BME280;32541;46.298;11.506;2023-11-21T03:45:40;88728.09;;;0.89;99.44
46782;BME280;32541;46.298;11.506;2023-11-21T03:48:06;88733.31;;;0.94;98.76
46782;BME280;32541;46.298;11.506;2023-11-21T03:50:31;88737.44;;;0.80;98.97
46782;BME280;32541;46.298;11.506;2023-11-21T03:52:57;88730.22;;;0.75;99.47
46782;BME280;32541;46.298;11.506;2023-11-21T03:55:22;88721.56;;;0.77;99.31
46782;BME280;32541;46.298;11.506;2023-11-21T03:57:52;88724.81;;;0.75;99.26
46782;BME280;32541;46.298;11.506;2023-11-21T04:00:17;88724.44;;;0.79;98.99
46782;BME280;32541;46.298;11.506;2023-11-21T04:02:45;88726.25;;;0.76;99.25
46782;BME280;32541;46.298;11.506;2023-11-21T04:05:10;88726.25;;;0.76;99.52
46782;BME280;32541;46.298;11.506;2023-11-21T04:07:36;88723.38;;;0.82;99.22
46782;BME280;32541;46.298;11.506;2023-11-21T04:10:07;88724.66;;;0.88;99.20
46782;BME280;32541;46.298;11.506;2023-11-21T04:12:37;88719.75;;;0.79;100.00
46782;BME280;32541;46.298;11.506;2023-11-21T04:15:03;88714.69;;;0.83;99.40
46782;BME280;32541;46.298;11.506;2023-11-21T04:17:28;88713.97;;;0.75;99.73
46782;BME280;32541;46.298;11.506;2023-11-21T04:19:54;88715.59;;;0.78;99.52
46782;BME280;32541;46.298;11.506;2023-11-21T04:22:19;88715.25;;;0.74;99.36
46782;BME280;32541;46.298;11.506;2023-11-21T04:24:44;88713.81;;;0.73;98.98
46782;BME280;32541;46.298;11.506;2023-11-21T04:27:10;88713.28;;;0.82;98.69
46782;BME280;32541;46.298;11.506;2023-11-21T04:29:35;88706.75;;;0.78;98.82
46782;BME280;32541;46.298;11.506;2023-11-21T04:32:01;88710.38;;;0.73;98.84
46782;BME280;32541;46.298;11.506;2023-11-21T04:34:28;88715.06;;;0.72;98.88
46782;BME280;32541;46.298;11.506;2023-11-21T04:36:55;88704.22;;;0.72;98.98
46782;BME280;32541;46.298;11.506;2023-11-21T04:39:21;88710.72;;;0.69;98.57
46782;BME280;32541;46.298;11.506;2023-11-21T04:41:46;88715.06;;;0.65;98.77
46782;BME280;32541;46.298;11.506;2023-11-21T04:44:11;88713.97;;;0.68;98.68
46782;BME280;32541;46.298;11.506;2023-11-21T04:46:37;88713.59;;;0.64;98.56
46782;BME280;32541;46.298;11.506;2023-11-21T04:49:02;88706.94;;;0.65;99.15
46782;BME280;32541;46.298;11.506;2023-11-21T04:51:27;88704.59;;;0.76;98.27
46782;BME280;32541;46.298;11.506;2023-11-21T04:53:53;88709.28;;;0.68;98.41
46782;BME280;32541;46.298;11.506;2023-11-21T04:56:18;88711.44;;;0.62;98.89
46782;BME280;32541;46.298;11.506;2023-11-21T04:58:44;88717.72;;;0.57;100.00
46782;BME280;32541;46.298;11.506;2023-11-21T05:01:09;88718.28;;;0.55;100.00
46782;BME280;32541;46.298;11.506;2023-11-21T05:03:35;88727.13;;;0.56;100.00
46782;BME280;32541;46.298;11.506;2023-11-21T05:06:00;88730.00;;;0.50;100.00
46782;BME280;32541;46.298;11.506;2023-11-21T05:08:25;88725.84;;;0.49;100.00
46782;BME280;32541;46.298;11.506;2023-11-21T05:10:51;88728.91;;;0.53;100.00
46782;BME280;32541;46.298;11.506;2023-11-21T05:13:17;88720.06;;;0.53;99.77
46782;BME280;32541;46.298;11.506;2023-11-21T05:15:44;88719.34;;;0.60;99.24
46782;BME280;32541;46.298;11.506;2023-11-21T05:18:09;88722.22;;;0.54;99.86
46782;BME280;32541;46.298;11.506;2023-11-21T05:20:36;88733.59;;;0.61;99.11
46782;BME280;32541;46.298;11.506;2023-11-21T05:23:01;88721.88;;;0.58;100.00
46782;BME280;32541;46.298;11.506;2023-11-21T05:25:26;88732.66;;;0.35;100.00
46782;BME280;32541;46.298;11.506;2023-11-21T05:27:52;88738.75;;;0.36;100.00
46782;BME280;32541;46.298;11.506;2023-11-21T05:30:18;88730.31;;;0.39;100.00
46782;BME280;32541;46.298;11.506;2023-11-21T05:32:44;88731.41;;;0.44;100.00
46782;BME280;32541;46.298;11.506;2023-11-21T05:35:10;88722.19;;;0.39;100.00
46782;BME280;32541;46.298;11.506;2023-11-21T05:37:40;88725.44;;;0.38;100.00
46782;BME280;32541;46.298;11.506;2023-11-21T05:40:06;88724.16;;;0.39;100.00
46782;BME280;32541;46.298;11.506;2023-11-21T05:42:33;88721.16;;;0.50;100.00
46782;BME280;32541;46.298;11.506;2023-11-21T05:44:58;88722.22;;;0.47;99.51
46782;BME280;32541;46.298;11.506;2023-11-21T05:47:25;88717.53;;;0.47;99.43
46782;BME280;32541;46.298;11.506;2023-11-21T05:49:51;88721.47;;;0.39;99.17
46782;BME280;32541;46.298;11.506;2023-11-21T05:52:17;88731.06;;;0.55;98.50
46782;BME280;32541;46.298;11.506;2023-11-21T05:54:43;88727.59;;;0.39;99.46
46782;BME280;32541;46.298;11.506;2023-11-21T05:57:08;88722.53;;;0.28;100.00
46782;BME280;32541;46.298;11.506;2023-11-21T05:59:34;88715.66;;;0.27;99.92
46782;BME280;32541;46.298;11.506;2023-11-21T06:01:59;88724.34;;;0.33;99.65
46782;BME280;32541;46.298;11.506;2023-11-21T06:04:24;88730.28;;;0.32;99.64
46782;BME280;32541;46.298;11.506;2023-11-21T06:06:51;88731.19;;;0.34;99.69
46782;BME280;32541;46.298;11.506;2023-11-21T06:09:18;88730.84;;;0.38;99.56
46782;BME280;32541;46.298;11.506;2023-11-21T06:11:43;88723.69;;;0.55;98.57
46782;BME280;32541;46.298;11.506;2023-11-21T06:14:08;88723.47;;;0.46;99.40
46782;BME280;32541;46.298;11.506;2023-11-21T06:16:34;88730.13;;;0.45;99.89
46782;BME280;32541;46.298;11.506;2023-11-21T06:19:00;88725.66;;;0.55;99.73
46782;BME280;32541;46.298;11.506;2023-11-21T06:21:26;88731.97;;;0.57;100.00
46782;BME280;32541;46.298;11.506;2023-11-21T06:23:51;88730.91;;;0.61;100.00
46782;BME280;32541;46.298;11.506;2023-11-21T06:26:18;88743.00;;;0.67;99.50
46782;BME280;32541;46.298;11.506;2023-11-21T06:28:44;88745.31;;;0.55;99.63
46782;BME280;32541;46.298;11.506;2023-11-21T06:31:09;88741.34;;;0.49;99.65
46782;BME280;32541;46.298;11.506;2023-11-21T06:33:36;88743.31;;;0.48;100.00
46782;BME280;32541;46.298;11.506;2023-11-21T06:36:01;88738.44;;;0.47;100.00
46782;BME280;32541;46.298;11.506;2023-11-21T06:38:31;88736.88;;;0.59;100.00
46782;BME280;32541;46.298;11.506;2023-11-21T06:40:57;88737.22;;;0.63;100.00
46782;BME280;32541;46.298;11.506;2023-11-21T06:43:24;88735.78;;;0.70;100.00
46782;BME280;32541;46.298;11.506;2023-11-21T06:45:49;88748.41;;;0.75;99.85
46782;BME280;32541;46.298;11.506;2023-11-21T06:48:15;88741.22;;;0.77;100.00
46782;BME280;32541;46.298;11.506;2023-11-21T06:50:40;88749.16;;;0.75;99.46
46782;BME280;32541;46.298;11.506;2023-11-21T06:53:06;88737.25;;;0.78;99.46
46782;BME280;32541;46.298;11.506;2023-11-21T06:55:33;88735.81;;;0.85;99.22
46782;BME280;32541;46.298;11.506;2023-11-21T06:57:58;88740.88;;;0.88;99.27
46782;BME280;32541;46.298;11.506;2023-11-21T07:00:25;88749.00;;;0.88;99.52
46782;BME280;32541;46.298;11.506;2023-11-21T07:02:52;88739.97;;;0.93;99.08
46782;BME280;32541;46.298;11.506;2023-11-21T07:05:18;88739.97;;;0.93;99.25
46782;BME280;32541;46.298;11.506;2023-11-21T07:07:46;88741.78;;;0.98;99.25
46782;BME280;32541;46.298;11.506;2023-11-21T07:10:11;88736.19;;;1.04;98.96
46782;BME280;32541;46.298;11.506;2023-11-21T07:12:37;88730.25;;;1.13;98.78
46782;BME280;32541;46.298;11.506;2023-11-21T07:15:03;88737.84;;;1.22;98.23
46782;BME280;32541;46.298;11.506;2023-11-21T07:17:31;88736.03;;;1.40;98.34
46782;BME280;32541;46.298;11.506;2023-11-21T07:19:56;88737.66;;;1.50;97.34
46782;BME280;32541;46.298;11.506;2023-11-21T07:22:22;88735.66;;;1.13;98.89
46782;BME280;32541;46.298;11.506;2023-11-21T07:24:50;88747.97;;;1.22;99.03
46782;BME280;32541;46.298;11.506;2023-11-21T07:27:16;88745.06;;;1.35;98.78
46782;BME280;32541;46.298;11.506;2023-11-21T07:29:42;88746.50;;;1.51;98.68
46782;BME280;32541;46.298;11.506;2023-11-21T07:32:07;88744.66;;;1.76;98.22
46782;BME280;32541;46.298;11.506;2023-11-21T07:34:34;88744.59;;;2.14;97.13
46782;BME280;32541;46.298;11.506;2023-11-21T07:36:59;88741.56;;;2.50;95.41
46782;BME280;32541;46.298;11.506;2023-11-21T07:39:25;88745.19;;;2.52;94.69
46782;BME280;32541;46.298;11.506;2023-11-21T07:41:50;88748.16;;;3.11;93.21
46782;BME280;32541;46.298;11.506;2023-11-21T07:44:16;88741.09;;;3.82;88.31
46782;BME280;32541;46.298;11.506;2023-11-21T07:46:42;88746.97;;;4.65;85.32
46782;BME280;32541;46.298;11.506;2023-11-21T07:49:08;88736.38;;;5.76;79.95
46782;BME280;32541;46.298;11.506;2023-11-21T07:51:34;88730.97;;;6.79;69.53
46782;BME280;32541;46.298;11.506;2023-11-21T07:53:59;88730.72;;;5.28;72.30
46782;BME280;32541;46.298;11.506;2023-11-21T07:56:25;88732.06;;;5.36;71.09
46782;BME280;32541;46.298;11.506;2023-11-21T07:58:51;88732.53;;;4.89;76.10
46782;BME280;32541;46.298;11.506;2023-11-21T08:01:16;88732.75;;;5.73;72.43
46782;BME280;32541;46.298;11.506;2023-11-21T08:03:41;88730.94;;;6.41;71.81
46782;BME280;32541;46.298;11.506;2023-11-21T08:06:07;88736.09;;;7.13;70.96
46782;BME280;32541;46.298;11.506;2023-11-21T08:08:33;88721.75;;;7.94;67.26
46782;BME280;32541;46.298;11.506;2023-11-21T08:10:58;88723.94;;;8.68;65.16
46782;BME280;32541;46.298;11.506;2023-11-21T08:13:25;88716.16;;;9.19;61.17
46782;BME280;32541;46.298;11.506;2023-11-21T08:15:55;88715.66;;;9.43;60.68
46782;BME280;32541;46.298;11.506;2023-11-21T08:18:21;88712.84;;;9.76;58.45
46782;BME280;32541;46.298;11.506;2023-11-21T08:20:47;88719.88;;;9.68;56.42
46782;BME280;32541;46.298;11.506;2023-11-21T08:23:16;88709.88;;;9.28;54.36
46782;BME280;32541;46.298;11.506;2023-11-21T08:25:45;88704.59;;;8.24;56.73
46782;BME280;32541;46.298;11.506;2023-11-21T08:28:11;88706.31;;;7.67;58.05
46782;BME280;32541;46.298;11.506;2023-11-21T08:30:37;88707.22;;;6.82;61.56
46782;BME280;32541;46.298;11.506;2023-11-21T08:33:02;88710.09;;;6.17;64.49
46782;BME280;32541;46.298;11.506;2023-11-21T08:35:29;88710.69;;;5.79;66.62
46782;BME280;32541;46.298;11.506;2023-11-21T08:37:54;88717.91;;;5.21;70.00
46782;BME280;32541;46.298;11.506;2023-11-21T08:40:20;88707.84;;;5.50;68.62
46782;BME280;32541;46.298;11.506;2023-11-21T08:42:47;88725.34;;;4.67;70.14
46782;BME280;32541;46.298;11.506;2023-11-21T08:45:14;88720.56;;;4.40;71.31
46782;BME280;32541;46.298;11.506;2023-11-21T08:47:39;88709.31;;;4.71;70.13
46782;BME280;32541;46.298;11.506;2023-11-21T08:50:07;88704.81;;;4.83;70.45
46782;BME280;32541;46.298;11.506;2023-11-21T08:52:36;88714.53;;;5.03;70.71
46782;BME280;32541;46.298;11.506;2023-11-21T08:55:02;88709.03;;;5.20;71.06
46782;BME280;32541;46.298;11.506;2023-11-21T08:57:36;88712.97;;;5.36;70.91
46782;BME280;32541;46.298;11.506;2023-11-21T09:00:03;88713.03;;;5.46;71.32
46782;BME280;32541;46.298;11.506;2023-11-21T09:02:32;88713.22;;;5.94;72.73
46782;BME280;32541;46.298;11.506;2023-11-21T09:04:59;88708.53;;;6.61;72.03
46782;BME280;32541;46.298;11.506;2023-11-21T09:07:24;88712.09;;;7.12;70.22
46782;BME280;32541;46.298;11.506;2023-11-21T09:09:50;88704.31;;;7.58;69.68
46782;BME280;32541;46.298;11.506;2023-11-21T09:12:16;88701.78;;;7.81;65.88
46782;BME280;32541;46.298;11.506;2023-11-21T09:14:42;88700.34;;;7.80;65.18
46782;BME280;32541;46.298;11.506;2023-11-21T09:17:09;88699.53;;;7.99;62.91
46782;BME280;32541;46.298;11.506;2023-11-21T09:19:37;88698.94;;;8.01;61.45
46782;BME280;32541;46.298;11.506;2023-11-21T09:22:03;88711.31;;;8.02;58.20
46782;BME280;32541;46.298;11.506;2023-11-21T09:24:28;88705.81;;;7.40;61.14
46782;BME280;32541;46.298;11.506;2023-11-21T09:26:54;88705.38;;;6.55;64.67
46782;BME280;32541;46.298;11.506;2023-11-21T09:29:19;88706.22;;;6.39;66.18
46782;BME280;32541;46.298;11.506;2023-11-21T09:31:44;88699.75;;;6.44;66.77
46782;BME280;32541;46.298;11.506;2023-11-21T09:34:10;88708.41;;;6.50;66.61
46782;BME280;32541;46.298;11.506;2023-11-21T09:36:36;88703.34;;;6.65;68.12
46782;BME280;32541;46.298;11.506;2023-11-21T09:39:04;88702.47;;;6.72;66.90
46782;BME280;32541;46.298;11.506;2023-11-21T09:41:56;88705.09;;;6.32;66.91
46782;BME280;32541;46.298;11.506;2023-11-21T09:44:58;88715.78;;;5.29;72.40
46782;BME280;32541;46.298;11.506;2023-11-21T09:47:21;88725.94;;;5.19;73.08
46782;BME280;32541;46.298;11.506;2023-11-21T09:49:48;88720.44;;;5.09;74.05
46782;BME280;32541;46.298;11.506;2023-11-21T09:52:27;88716.53;;;5.29;72.78
46782;BME280;32541;46.298;11.506;2023-11-21T09:54:54;88706.06;;;5.35;72.25
46782;BME280;32541;46.298;11.506;2023-11-21T09:57:23;88707.38;;;5.34;72.49
46782;BME280;32541;46.298;11.506;2023-11-21T09:59:53;88700.94;;;5.39;72.69
46782;BME280;32541;46.298;11.506;2023-11-21T10:02:28;88700.34;;;5.41;72.96
46782;BME280;32541;46.298;11.506;2023-11-21T10:04:59;88701.13;;;5.51;72.43
46782;BME280;32541;46.298;11.506;2023-11-21T10:07:26;88692.13;;;5.58;72.45
46782;BME280;32541;46.298;11.506;2023-11-21T10:09:52;88692.13;;;5.58;73.45
46782;BME280;32541;46.298;11.506;2023-11-21T10:12:18;88692.72;;;5.66;73.38
46782;BME280;32541;46.298;11.506;2023-11-21T10:14:48;88688.94;;;5.61;74.18
46782;BME280;32541;46.298;11.506;2023-11-21T10:17:14;88694.63;;;5.46;75.66
46782;BME280;32541;46.298;11.506;2023-11-21T10:19:42;88689.69;;;4.99;77.68
46782;BME280;32541;46.298;11.506;2023-11-21T10:22:08;88692.66;;;4.67;79.20
46782;BME280;32541;46.298;11.506;2023-11-21T10:24:34;88683.06;;;4.66;78.71
46782;BME280;32541;46.298;11.506;2023-11-21T10:26:59;88682.75;;;4.62;78.57
46782;BME280;32541;46.298;11.506;2023-11-21T10:29:29;88674.06;;;4.73;78.37
46782;BME280;32541;46.298;11.506;2023-11-21T10:31:55;88668.84;;;4.84;78.59
46782;BME280;32541;46.298;11.506;2023-11-21T10:34:22;88672.66;;;4.98;79.16
46782;BME280;32541;46.298;11.506;2023-11-21T10:36:48;88668.00;;;5.18;78.14
46782;BME280;32541;46.298;11.506;2023-11-21T10:39:18;88668.91;;;5.30;77.89
46782;BME280;32541;46.298;11.506;2023-11-21T10:41:44;88658.47;;;5.36;78.52
46782;BME280;32541;46.298;11.506;2023-11-21T10:44:11;88657.81;;;5.55;78.86
46782;BME280;32541;46.298;11.506;2023-11-21T10:46:39;88659.66;;;5.52;79.60
46782;BME280;32541;46.298;11.506;2023-11-21T10:49:05;88655.38;;;5.59;79.74
46782;BME280;32541;46.298;11.506;2023-11-21T10:51:31;88650.53;;;5.67;79.91
46782;BME280;32541;46.298;11.506;2023-11-21T10:53:57;88647.66;;;5.75;79.93
46782;BME280;32541;46.298;11.506;2023-11-21T10:56:25;88644.50;;;5.78;79.62
46782;BME280;32541;46.298;11.506;2023-11-21T10:58:52;88643.78;;;5.78;81.05
46782;BME280;32541;46.298;11.506;2023-11-21T11:01:18;88649.78;;;5.57;80.90
46782;BME280;32541;46.298;11.506;2023-11-21T11:03:46;88638.09;;;5.37;81.33
46782;BME280;32541;46.298;11.506;2023-11-21T11:06:13;88642.19;;;5.19;83.16
46782;BME280;32541;46.298;11.506;2023-11-21T11:08:39;88646.56;;;5.05;79.65
46782;BME280;32541;46.298;11.506;2023-11-21T11:11:06;88643.34;;;5.16;77.00
46782;BME280;32541;46.298;11.506;2023-11-21T11:13:31;88637.13;;;5.06;78.15
46782;BME280;32541;46.298;11.506;2023-11-21T11:16:01;88628.00;;;5.21;78.23
46782;BME280;32541;46.298;11.506;2023-11-21T11:18:28;88640.34;;;5.22;77.80
46782;BME280;32541;46.298;11.506;2023-11-21T11:20:59;88636.78;;;5.38;78.09
46782;BME280;32541;46.298;11.506;2023-11-21T11:26:07;88639.13;;;5.51;79.24
46782;BME280;32541;46.298;11.506;2023-11-21T11:35:02;88624.59;;;5.95;75.29
46782;BME280;32541;46.298;11.506;2023-11-21T11:37:29;88614.56;;;6.17;72.76
46782;BME280;32541;46.298;11.506;2023-11-21T11:39:55;88613.53;;;6.22;71.54
46782;BME280;32541;46.298;11.506;2023-11-21T11:42:21;88615.72;;;6.23;70.66
46782;BME280;32541;46.298;11.506;2023-11-21T11:44:48;88626.63;;;6.23;69.02
46782;BME280;32541;46.298;11.506;2023-11-21T11:52:44;88618.97;;;6.50;67.25
46782;BME280;32541;46.298;11.506;2023-11-21T11:55:11;88609.63;;;6.53;67.68
46782;BME280;32541;46.298;11.506;2023-11-21T11:57:38;88605.47;;;6.62;68.06
46782;BME280;32541;46.298;11.506;2023-11-21T12:02:52;88602.56;;;6.79;67.66
46782;BME280;32541;46.298;11.506;2023-11-21T12:05:19;88595.75;;;6.90;66.75
46782;BME280;32541;46.298;11.506;2023-11-21T12:07:52;88598.91;;;6.96;66.13
46782;BME280;32541;46.298;11.506;2023-11-21T12:10:21;88596.28;;;6.98;66.48
46782;BME280;32541;46.298;11.506;2023-11-21T12:12:51;88589.94;;;7.05;67.08
46782;BME280;32541;46.298;11.506;2023-11-21T12:15:18;88585.50;;;7.09;66.42
46782;BME280;32541;46.298;11.506;2023-11-21T12:17:45;88586.91;;;7.10;63.83
46782;BME280;32541;46.298;11.506;2023-11-21T12:20:12;88587.41;;;6.88;67.53
46782;BME280;32541;46.298;11.506;2023-11-21T12:22:56;88594.13;;;6.56;73.06
46782;BME280;32541;46.298;11.506;2023-11-21T12:25:24;88596.16;;;6.17;77.33
46782;BME280;32541;46.298;11.506;2023-11-21T12:27:51;88596.03;;;6.05;76.19
46782;BME280;32541;46.298;11.506;2023-11-21T12:30:18;88594.88;;;6.08;73.18
46782;BME280;32541;46.298;11.506;2023-11-21T12:32:45;88600.91;;;6.17;72.80
46782;BME280;32541;46.298;11.506;2023-11-21T12:35:13;88590.97;;;6.40;69.57
46782;BME280;32541;46.298;11.506;2023-11-21T12:37:39;88589.09;;;6.52;69.65
46782;BME280;32541;46.298;11.506;2023-11-21T12:40:06;88583.16;;;6.65;66.10
46782;BME280;32541;46.298;11.506;2023-11-21T12:42:33;88578.44;;;6.56;65.75
46782;BME280;32541;46.298;11.506;2023-11-21T12:45:10;88589.19;;;6.74;66.65
46782;BME280;32541;46.298;11.506;2023-11-21T12:47:43;88582.56;;;6.77;68.17
46782;BME280;32541;46.298;11.506;2023-11-21T12:50:10;88582.06;;;6.99;67.64
46782;BME280;32541;46.298;11.506;2023-11-21T12:52:45;88575.88;;;6.99;65.36
46782;BME280;32541;46.298;11.506;2023-11-21T12:55:17;88573.00;;;6.97;67.04
46782;BME280;32541;46.298;11.506;2023-11-21T12:57:44;88578.91;;;6.93;66.13
46782;BME280;32541;46.298;11.506;2023-11-21T13:00:12;88581.13;;;6.76;65.44
46782;BME280;32541;46.298;11.506;2023-11-21T13:02:50;88576.53;;;6.68;65.37
46782;BME280;32541;46.298;11.506;2023-11-21T13:05:26;88580.72;;;6.69;66.65
46782;BME280;32541;46.298;11.506;2023-11-21T13:07:52;88573.97;;;6.70;63.58
46782;BME280;32541;46.298;11.506;2023-11-21T13:10:22;88571.78;;;6.69;62.78
46782;BME280;32541;46.298;11.506;2023-11-21T13:12:52;88578.84;;;6.72;66.81